createdAt,value
2017-09-19T00:00:07.647Z,80.96
2017-09-19T00:01:17.630Z,80.77
2017-09-19T00:02:28.056Z,81.63
2017-09-19T00:03:38.799Z,80.96
2017-09-19T00:04:50.286Z,80.68
2017-09-19T00:06:00.917Z,80.87
2017-09-19T00:07:11.106Z,80.68
2017-09-19T00:08:21.554Z,81.06
2017-09-19T00:09:32.240Z,81.06
2017-09-19T00:10:42.750Z,81.06
2017-09-19T00:11:52.953Z,80.68
2017-09-19T00:13:03.404Z,80.96
2017-09-19T00:14:13.854Z,80.87
2017-09-19T00:15:24.572Z,80.87
2017-09-19T00:16:34.997Z,80.96
2017-09-19T00:17:45.417Z,81.35
2017-09-19T00:18:55.907Z,80.58
2017-09-19T00:20:06.017Z,80.68
2017-09-19T00:21:16.813Z,80.96
2017-09-19T00:22:27.268Z,80.73
2017-09-19T00:23:37.817Z,80.83
2017-09-19T00:24:48.293Z,81.35
2017-09-19T00:25:58.310Z,81.35
2017-09-19T00:27:08.984Z,81.35
2017-09-19T00:28:19.405Z,81.54
2017-09-19T00:29:29.837Z,81.54
2017-09-19T00:30:40.363Z,81.35
2017-09-19T00:31:50.522Z,81.63
2017-09-19T00:33:01.191Z,81.15
2017-09-19T00:34:11.307Z,81.35
2017-09-19T00:35:21.424Z,81.54
2017-09-19T00:36:31.540Z,81.35
2017-09-19T00:37:41.970Z,81.35
2017-09-19T00:38:52.647Z,81.25
2017-09-19T00:40:03.237Z,81.73
2017-09-19T00:41:13.656Z,81.54
2017-09-19T00:42:23.792Z,80.87
2017-09-19T00:43:33.773Z,80.77
2017-09-19T00:44:44.485Z,80.96
2017-09-19T00:45:55.000Z,80.87
2017-09-19T00:47:05.422Z,80.87
2017-09-19T00:48:15.850Z,80.96
2017-09-19T00:49:26.277Z,80.49
2017-09-19T00:50:36.632Z,81.54
2017-09-19T00:51:47.119Z,81.15
2017-09-19T00:52:57.548Z,81.25
2017-09-19T00:54:07.979Z,81.25
2017-09-19T00:55:19.080Z,81.54
2017-09-19T00:56:29.756Z,81.35
2017-09-19T00:57:40.209Z,81.15
2017-09-19T00:58:50.324Z,81.35
2017-09-19T01:00:00.876Z,81.35
2017-09-19T01:01:11.307Z,81.25
2017-09-19T01:02:21.977Z,81.15
2017-09-19T01:03:32.521Z,81.25
2017-09-19T01:04:42.941Z,81.35
2017-09-19T01:05:53.383Z,80.87
2017-09-19T01:07:03.862Z,81.44
2017-09-19T01:08:14.530Z,81.35
2017-09-19T01:09:24.975Z,80.77
2017-09-19T01:10:35.490Z,80.87
2017-09-19T01:11:45.910Z,81.35
2017-09-19T01:12:56.406Z,81.35
2017-09-19T01:14:06.640Z,81.15
2017-09-19T01:15:17.059Z,81.35
2017-09-19T01:16:27.548Z,81.73
2017-09-19T01:17:37.991Z,81.59
2017-09-19T01:18:48.268Z,81.54
2017-09-19T01:19:58.632Z,81.73
2017-09-19T01:21:09.057Z,81.49
2017-09-19T01:22:19.518Z,81.54
2017-09-19T01:23:29.646Z,81.68
2017-09-19T01:24:40.168Z,81.63
2017-09-19T01:25:50.839Z,81.3
2017-09-19T01:27:00.950Z,81.59
2017-09-19T01:28:11.383Z,81.44
2017-09-19T01:29:21.050Z,81.3
2017-09-19T01:30:31.158Z,81.3
2017-09-19T01:31:41.835Z,81.35
2017-09-19T01:32:51.937Z,81.54
2017-09-19T01:34:02.449Z,80.96
2017-09-19T01:35:12.669Z,80.83
2017-09-19T01:36:23.196Z,81.02
2017-09-19T01:37:33.586Z,80.83
2017-09-19T01:38:44.014Z,80.96
2017-09-19T01:39:54.548Z,80.83
2017-09-19T01:41:05.026Z,81.49
2017-09-19T01:42:15.442Z,81.35
2017-09-19T01:43:26.235Z,81.21
2017-09-19T01:44:36.805Z,81.25
2017-09-19T01:45:46.907Z,81.35
2017-09-19T01:46:57.013Z,81.49
2017-09-19T01:48:07.682Z,81.59
2017-09-19T01:49:18.387Z,81.59
2017-09-19T01:50:28.516Z,81.3
2017-09-19T01:51:39.026Z,81.73
2017-09-19T01:52:49.148Z,81.35
2017-09-19T01:53:59.572Z,81.35
2017-09-19T01:55:10.280Z,80.58
2017-09-19T01:56:20.722Z,81.35
2017-09-19T01:57:31.406Z,81.06
2017-09-19T01:58:41.830Z,81.06
2017-09-19T01:59:52.296Z,80.77
2017-09-19T02:01:02.787Z,81.06
2017-09-19T02:02:13.227Z,80.96
2017-09-19T02:03:23.365Z,81.35
2017-09-19T02:04:33.804Z,81.35
2017-09-19T02:05:44.239Z,81.35
2017-09-19T02:06:54.609Z,81.35
2017-09-19T02:08:04.650Z,81.63
2017-09-19T02:09:15.082Z,80.96
2017-09-19T02:10:25.535Z,80.96
2017-09-19T02:11:35.769Z,80.87
2017-09-19T02:12:46.486Z,80.96
2017-09-19T02:13:56.636Z,80.96
2017-09-19T02:15:07.093Z,81.06
2017-09-19T02:16:17.571Z,81.02
2017-09-19T02:17:28.020Z,81.02
2017-09-19T02:18:38.824Z,80.92
2017-09-19T02:19:49.271Z,80.92
2017-09-19T02:20:59.482Z,81.54
2017-09-19T02:22:09.727Z,81.3
2017-09-19T02:23:19.880Z,81.06
2017-09-19T02:24:30.555Z,80.87
2017-09-19T02:25:40.976Z,81.06
2017-09-19T02:26:51.013Z,80.77
2017-09-19T02:28:01.156Z,81.06
2017-09-19T02:29:11.578Z,80.3
2017-09-19T02:30:22.258Z,80.68
2017-09-19T02:31:32.748Z,80.68
2017-09-19T02:32:43.015Z,80.49
2017-09-19T02:33:53.440Z,80.39
2017-09-19T02:35:03.890Z,80.49
2017-09-19T02:36:14.695Z,80.3
2017-09-19T02:37:25.129Z,80.2
2017-09-19T02:38:35.585Z,80.01
2017-09-19T02:39:46.046Z,80.3
2017-09-19T02:40:56.481Z,80.2
2017-09-19T02:42:06.865Z,79.88
2017-09-19T02:43:17.303Z,79.97
2017-09-19T02:44:27.433Z,79.97
2017-09-19T02:45:38.155Z,80.35
2017-09-19T02:46:48.717Z,80.35
2017-09-19T02:47:59.412Z,80.64
2017-09-19T02:49:09.847Z,81.12
2017-09-19T02:50:20.422Z,80.54
2017-09-19T02:51:30.889Z,80.16
2017-09-19T02:52:41.362Z,81.02
2017-09-19T02:53:52.029Z,80.92
2017-09-19T02:55:02.472Z,81.4
2017-09-19T02:56:12.928Z,81.3
2017-09-19T02:57:23.366Z,81.12
2017-09-19T02:58:33.798Z,80.92
2017-09-19T02:59:44.510Z,80.92
2017-09-19T03:00:54.936Z,81.02
2017-09-19T03:02:05.358Z,80.68
2017-09-19T03:03:15.474Z,81.12
2017-09-19T03:04:26.906Z,80.39
2017-09-19T03:05:37.596Z,80.68
2017-09-19T03:06:48.018Z,80.49
2017-09-19T03:07:58.454Z,80.96
2017-09-19T03:09:08.882Z,81.15
2017-09-19T03:10:19.312Z,80.96
2017-09-19T03:11:30.062Z,80.68
2017-09-19T03:12:40.507Z,80.68
2017-09-19T03:13:50.657Z,80.58
2017-09-19T03:15:00.804Z,80.58
2017-09-19T03:16:11.276Z,80.96
2017-09-19T03:17:21.951Z,80.92
2017-09-19T03:18:32.372Z,81.06
2017-09-19T03:19:42.492Z,80.87
2017-09-19T03:20:52.985Z,80.73
2017-09-19T03:22:03.114Z,81.63
2017-09-19T03:23:13.051Z,81.54
2017-09-19T03:24:23.505Z,80.68
2017-09-19T03:25:33.923Z,80.64
2017-09-19T03:26:44.344Z,80.92
2017-09-19T03:27:54.330Z,80.83
2017-09-19T03:29:05.041Z,81.3
2017-09-19T03:30:15.499Z,81.3
2017-09-19T03:31:25.624Z,80.92
2017-09-19T03:32:36.077Z,80.83
2017-09-19T03:33:46.241Z,80.92
2017-09-19T03:34:56.600Z,80.92
2017-09-19T03:36:07.046Z,81.4
2017-09-19T03:37:17.170Z,81.4
2017-09-19T03:38:27.602Z,80.64
2017-09-19T03:39:38.041Z,81.3
2017-09-19T03:40:48.723Z,81.12
2017-09-19T03:41:59.158Z,80.68
2017-09-19T03:43:09.721Z,80.77
2017-09-19T03:44:20.158Z,80.96
2017-09-19T03:45:30.307Z,80.92
2017-09-19T03:46:41.089Z,81.3
2017-09-19T03:47:51.515Z,81.49
2017-09-19T03:49:01.766Z,81.49
2017-09-19T03:50:12.197Z,81.3
2017-09-19T03:51:22.909Z,81.4
2017-09-19T03:52:33.878Z,81.3
2017-09-19T03:53:44.348Z,81.21
2017-09-19T03:54:54.948Z,81.49
2017-09-19T03:56:05.064Z,81.59
2017-09-19T03:57:15.237Z,81.88
2017-09-19T03:58:25.929Z,81.68
2017-09-19T03:59:36.379Z,81.78
2017-09-19T04:00:46.914Z,81.49
2017-09-19T04:01:57.350Z,81.4
2017-09-19T04:03:08.014Z,81.49
2017-09-19T04:04:18.873Z,81.3
2017-09-19T04:05:29.032Z,81.12
2017-09-19T04:06:39.493Z,81.59
2017-09-19T04:07:49.762Z,80.83
2017-09-19T04:09:00.246Z,80.83
2017-09-19T04:10:10.981Z,81.4
2017-09-19T04:11:21.398Z,81.12
2017-09-19T04:12:31.822Z,81.59
2017-09-19T04:13:42.298Z,81.59
2017-09-19T04:14:52.867Z,81.49
2017-09-19T04:16:03.673Z,81.3
2017-09-19T04:17:14.098Z,81.49
2017-09-19T04:18:24.624Z,81.21
2017-09-19T04:19:35.062Z,81.12
2017-09-19T04:20:45.729Z,81.49
2017-09-19T04:21:56.515Z,81.21
2017-09-19T04:23:07.006Z,81.4
2017-09-19T04:24:17.458Z,81.65
2017-09-19T04:25:27.888Z,81.49
2017-09-19T04:26:38.317Z,81.49
2017-09-19T04:27:48.801Z,81.4
2017-09-19T04:28:58.926Z,81.49
2017-09-19T04:30:09.378Z,81.68
2017-09-19T04:31:19.807Z,81.4
2017-09-19T04:32:30.238Z,81.21
2017-09-19T04:33:40.934Z,81.21
2017-09-19T04:34:51.398Z,81.12
2017-09-19T04:36:01.834Z,81.12
2017-09-19T04:37:12.281Z,81.3
2017-09-19T04:38:23.052Z,81.4
2017-09-19T04:39:33.744Z,81.78
2017-09-19T04:40:44.277Z,81.49
2017-09-19T04:41:54.718Z,81.49
2017-09-19T04:43:05.142Z,81.49
2017-09-19T04:44:15.574Z,81.3
2017-09-19T04:45:26.372Z,81.59
2017-09-19T04:46:36.819Z,81.4
2017-09-19T04:47:47.252Z,81.3
2017-09-19T04:48:57.697Z,81.49
2017-09-19T04:50:07.869Z,81.12
2017-09-19T04:51:18.543Z,80.73
2017-09-19T04:52:28.970Z,80.79
2017-09-19T04:53:39.425Z,81.26
2017-09-19T04:54:49.854Z,80.41
2017-09-19T04:56:00.293Z,81.36
2017-09-19T04:57:11.062Z,81.26
2017-09-19T04:58:21.512Z,80.79
2017-09-19T04:59:31.972Z,80.79
2017-09-19T05:00:42.431Z,81.26
2017-09-19T05:01:52.591Z,81.46
2017-09-19T05:03:03.273Z,81.55
2017-09-19T05:04:13.749Z,81.55
2017-09-19T05:05:23.946Z,81.55
2017-09-19T05:06:34.389Z,81.36
2017-09-19T05:07:44.818Z,81.26
2017-09-19T05:08:55.490Z,81.36
2017-09-19T05:10:05.961Z,81.26
2017-09-19T05:11:16.410Z,81.17
2017-09-19T05:12:26.830Z,82.03
2017-09-19T05:13:37.269Z,82.41
2017-09-19T05:14:47.628Z,82.6
2017-09-19T05:15:58.087Z,82.41
2017-09-19T05:17:08.550Z,82.41
2017-09-19T05:18:19.005Z,82.41
2017-09-19T05:19:29.536Z,82.21
2017-09-19T05:20:39.904Z,83.07
2017-09-19T05:21:50.376Z,82.69
2017-09-19T05:23:00.803Z,82.69
2017-09-19T05:24:11.245Z,82.41
2017-09-19T05:25:21.710Z,82.5
2017-09-19T05:26:32.391Z,82.5
2017-09-19T05:27:42.859Z,82.89
2017-09-19T05:28:53.291Z,82.98
2017-09-19T05:30:03.735Z,82.98
2017-09-19T05:31:14.157Z,82.89
2017-09-19T05:32:25.066Z,82.6
2017-09-19T05:33:35.486Z,82.89
2017-09-19T05:34:45.941Z,82.6
2017-09-19T05:35:56.373Z,82.6
2017-09-19T05:37:06.801Z,82.98
2017-09-19T05:38:17.485Z,82.5
2017-09-19T05:39:27.932Z,82.89
2017-09-19T05:40:38.120Z,82.41
2017-09-19T05:41:48.230Z,82.41
2017-09-19T05:42:58.702Z,82.41
2017-09-19T05:44:09.374Z,82.6
2017-09-19T05:45:19.814Z,82.41
2017-09-19T05:46:29.927Z,82.45
2017-09-19T05:47:40.509Z,82.73
2017-09-19T05:48:51.079Z,81.97
2017-09-19T05:50:00.812Z,81.88
2017-09-19T05:51:10.926Z,81.4
2017-09-19T05:52:21.401Z,81.59
2017-09-19T05:53:31.670Z,81.49
2017-09-19T05:54:42.081Z,81.4
2017-09-19T05:55:52.869Z,81.21
2017-09-19T05:57:03.383Z,81.21
2017-09-19T05:58:13.806Z,81.21
2017-09-19T05:59:23.907Z,81.12
2017-09-19T06:00:34.940Z,81.49
2017-09-19T06:01:45.607Z,81.3
2017-09-19T06:02:56.043Z,81.12
2017-09-19T06:04:06.742Z,81.35
2017-09-19T06:05:17.364Z,80.87
2017-09-19T06:06:27.866Z,80.87
2017-09-19T06:07:38.547Z,80.87
2017-09-19T06:08:48.679Z,80.96
2017-09-19T06:09:58.797Z,80.49
2017-09-19T06:11:09.350Z,80.58
2017-09-19T06:12:19.798Z,80.49
2017-09-19T06:13:30.532Z,80.3
2017-09-19T06:14:40.974Z,80.58
2017-09-19T06:15:51.411Z,80.49
2017-09-19T06:17:01.542Z,80.11
2017-09-19T06:18:11.964Z,80.39
2017-09-19T06:19:22.415Z,79.72
2017-09-19T06:20:32.855Z,79.53
2017-09-19T06:21:43.328Z,79.72
2017-09-19T06:22:53.742Z,79.82
2017-09-19T06:24:03.752Z,80.01
2017-09-19T06:25:14.486Z,79.53
2017-09-19T06:26:25.003Z,79.15
2017-09-19T06:27:35.123Z,79.77
2017-09-19T06:28:45.567Z,79.35
2017-09-19T06:29:55.992Z,79.77
2017-09-19T06:31:06.809Z,79.67
2017-09-19T06:32:17.288Z,79.57
2017-09-19T06:33:27.733Z,79.57
2017-09-19T06:34:38.268Z,79.77
2017-09-19T06:35:48.691Z,79.77
2017-09-19T06:36:59.400Z,79.57
2017-09-19T06:38:09.871Z,79.57
2017-09-19T06:39:20.296Z,79.77
2017-09-19T06:40:30.537Z,79.57
2017-09-19T06:41:40.971Z,79.48
2017-09-19T06:42:51.686Z,79.28
2017-09-19T06:44:02.131Z,79.1
2017-09-19T06:45:12.676Z,79.1
2017-09-19T06:46:23.101Z,79.19
2017-09-19T06:47:33.552Z,79.19
2017-09-19T06:48:43.913Z,79.28
2017-09-19T06:49:54.046Z,79
2017-09-19T06:51:04.153Z,79.28
2017-09-19T06:52:14.583Z,78.81
2017-09-19T06:53:25.048Z,79.1
2017-09-19T06:54:35.893Z,79.19
2017-09-19T06:55:46.313Z,79.1
2017-09-19T06:56:56.765Z,79.28
2017-09-19T06:58:06.772Z,79.28
2017-09-19T06:59:17.285Z,79.1
2017-09-19T07:00:27.971Z,79.57
2017-09-19T07:01:38.423Z,79.57
2017-09-19T07:02:48.925Z,79.48
2017-09-19T07:03:59.336Z,79.48
2017-09-19T07:05:09.850Z,79.1
2017-09-19T07:06:20.534Z,79.38
2017-09-19T07:07:30.962Z,78.43
2017-09-19T07:08:41.406Z,78.85
2017-09-19T07:09:51.824Z,78.47
2017-09-19T07:11:02.285Z,78.37
2017-09-19T07:12:12.954Z,78.18
2017-09-19T07:13:23.153Z,77.99
2017-09-19T07:14:33.311Z,78.41
2017-09-19T07:15:43.844Z,77.55
2017-09-19T07:16:54.345Z,77.45
2017-09-19T07:18:05.026Z,77.17
2017-09-19T07:19:15.021Z,77.3
2017-09-19T07:20:25.452Z,77.5
2017-09-19T07:21:35.876Z,76.82
2017-09-19T07:22:46.347Z,76.06
2017-09-19T07:23:56.729Z,76.54
2017-09-19T07:25:07.167Z,76.2
2017-09-19T07:26:17.646Z,75.81
2017-09-19T07:27:28.100Z,75.05
2017-09-19T07:28:38.552Z,74.76
2017-09-19T07:29:49.261Z,74.57
2017-09-19T07:30:59.257Z,74.85
2017-09-19T07:32:09.852Z,73.94
2017-09-19T07:33:20.291Z,73.46
2017-09-19T07:34:30.777Z,73.17
2017-09-19T07:35:41.480Z,72.63
2017-09-19T07:36:51.941Z,72.44
2017-09-19T07:38:02.364Z,71.81
2017-09-19T07:39:12.828Z,71.42
2017-09-19T07:40:22.980Z,70.66
2017-09-19T07:41:33.845Z,71.08
2017-09-19T07:42:44.288Z,70.7
2017-09-19T07:43:54.721Z,69.74
2017-09-19T07:45:05.261Z,69.45
2017-09-19T07:46:15.719Z,68.78
2017-09-19T07:47:26.431Z,68.01
2017-09-19T07:48:36.906Z,68.52
2017-09-19T07:49:47.345Z,68.05
2017-09-19T07:50:57.810Z,67.76
2017-09-19T07:52:08.383Z,67.12
2017-09-19T07:53:19.059Z,67.22
2017-09-19T07:54:29.531Z,66.93
2017-09-19T07:55:39.969Z,67.02
2017-09-19T07:56:50.404Z,65.97
2017-09-19T07:58:00.841Z,66.39
2017-09-19T07:59:11.564Z,65.23
2017-09-19T08:00:22.025Z,63.28
2017-09-19T08:01:32.489Z,61.43
2017-09-19T08:02:42.942Z,60.3
2017-09-19T08:03:53.393Z,58.6
2017-09-19T08:05:04.141Z,58.27
2017-09-19T08:06:14.577Z,57.37
2017-09-19T08:07:25.020Z,54.91
2017-09-19T08:08:35.481Z,53.23
2017-09-19T08:09:46.017Z,53.16
2017-09-19T08:10:56.716Z,50.35
2017-09-19T08:12:06.937Z,48.74
2017-09-19T08:13:17.424Z,49.32
2017-09-19T08:14:27.960Z,49.41
2017-09-19T08:15:38.404Z,48.25
2017-09-19T08:16:49.345Z,47.65
2017-09-19T08:18:00.060Z,46.97
2017-09-19T08:19:10.493Z,46.51
2017-09-19T08:20:20.989Z,45.01
2017-09-19T08:21:31.436Z,44.06
2017-09-19T08:22:42.232Z,42.92
2017-09-19T08:23:52.795Z,42.26
2017-09-19T08:25:03.243Z,41.88
2017-09-19T08:26:13.472Z,41.31
2017-09-19T08:27:23.923Z,40.67
2017-09-19T08:28:34.668Z,40.69
2017-09-19T08:29:45.122Z,38.67
2017-09-19T08:30:55.280Z,38.98
2017-09-19T08:32:05.465Z,37.84
2017-09-19T08:33:16.044Z,36.3
2017-09-19T08:34:26.750Z,35.33
2017-09-19T08:35:37.102Z,34.95
2017-09-19T08:36:47.562Z,35.25
2017-09-19T08:37:58.030Z,35.26
2017-09-19T08:39:08.514Z,34.11
2017-09-19T08:40:19.230Z,34.5
2017-09-19T08:41:29.706Z,33.82
2017-09-19T08:42:40.372Z,32.84
2017-09-19T08:43:50.929Z,30.31
2017-09-19T08:45:01.474Z,32.15
2017-09-19T08:46:12.284Z,32.71
2017-09-19T08:47:22.328Z,32.32
2017-09-19T08:48:32.838Z,32.52
2017-09-19T08:49:43.493Z,32.62
2017-09-19T08:50:53.972Z,32.03
2017-09-19T08:52:04.659Z,32.32
2017-09-19T08:53:15.476Z,32.62
2017-09-19T08:54:25.609Z,32.32
2017-09-19T08:55:36.152Z,32.4
2017-09-19T08:56:46.714Z,32.5
2017-09-19T08:57:57.388Z,31.34
2017-09-19T08:59:08.187Z,31.63
2017-09-19T09:00:18.638Z,32.6
2017-09-19T09:01:29.429Z,32.7
2017-09-19T09:02:39.941Z,31.93
2017-09-19T09:03:50.686Z,31.93
2017-09-19T09:05:00.847Z,31.17
2017-09-19T09:06:11.326Z,30.6
2017-09-19T09:07:21.829Z,29.63
2017-09-19T09:08:32.367Z,30.13
2017-09-19T09:09:43.113Z,30.22
2017-09-19T09:10:53.568Z,31.67
2017-09-19T09:12:04.214Z,31.24
2017-09-19T09:13:14.710Z,31.21
2017-09-19T09:14:25.183Z,31.48
2017-09-19T09:15:35.932Z,32.17
2017-09-19T09:16:46.425Z,32.35
2017-09-19T09:17:56.938Z,32.35
2017-09-19T09:19:07.087Z,32.75
2017-09-19T09:20:17.590Z,33.22
2017-09-19T09:21:28.316Z,34.46
2017-09-19T09:22:38.771Z,34.44
2017-09-19T09:23:48.919Z,34.36
2017-09-19T09:24:59.432Z,34.46
2017-09-19T09:26:10.125Z,33.12
2017-09-19T09:27:20.831Z,32.92
2017-09-19T09:28:31.291Z,33.02
2017-09-19T09:29:41.423Z,33.41
2017-09-19T09:30:51.653Z,33.69
2017-09-19T09:32:01.814Z,34.44
2017-09-19T09:33:12.531Z,34.43
2017-09-19T09:34:23.029Z,34.72
2017-09-19T09:35:33.191Z,35.09
2017-09-19T09:36:43.688Z,34.33
2017-09-19T09:37:53.712Z,34.46
2017-09-19T09:39:04.118Z,34.38
2017-09-19T09:40:14.596Z,34.56
2017-09-19T09:41:24.635Z,34.66
2017-09-19T09:42:35.007Z,35.41
2017-09-19T09:43:45.539Z,35.09
2017-09-19T09:44:56.287Z,35.66
2017-09-19T09:46:06.733Z,35.83
2017-09-19T09:47:17.195Z,35.83
2017-09-19T09:48:27.664Z,35.93
2017-09-19T09:49:38.206Z,36.99
2017-09-19T09:50:48.910Z,36.9
2017-09-19T09:51:59.368Z,37.09
2017-09-19T09:53:09.878Z,36.8
2017-09-19T09:54:19.709Z,36.99
2017-09-19T09:55:30.190Z,36.9
2017-09-19T09:56:40.894Z,36.82
2017-09-19T09:57:51.588Z,36.54
2017-09-19T09:59:02.043Z,36.64
2017-09-19T10:00:12.494Z,36.64
2017-09-19T10:01:22.525Z,36.44
2017-09-19T10:02:32.995Z,36.43
2017-09-19T10:03:43.507Z,37.19
2017-09-19T10:04:53.690Z,37.26
2017-09-19T10:06:04.222Z,38.33
2017-09-19T10:07:14.821Z,38.79
2017-09-19T10:08:25.533Z,38.87
2017-09-19T10:09:36.019Z,38.78
2017-09-19T10:10:46.486Z,38.79
2017-09-19T10:11:56.628Z,38.53
2017-09-19T10:13:06.768Z,37.67
2017-09-19T10:14:17.488Z,37.38
2017-09-19T10:15:28.008Z,37.59
2017-09-19T10:16:38.174Z,36.82
2017-09-19T10:17:48.659Z,37.69
2017-09-19T10:18:59.109Z,37.3
2017-09-19T10:20:09.929Z,37.59
2017-09-19T10:21:20.148Z,37.28
2017-09-19T10:22:30.252Z,37.38
2017-09-19T10:23:40.283Z,37.28
2017-09-19T10:24:50.726Z,37.21
2017-09-19T10:26:01.501Z,37.4
2017-09-19T10:27:11.956Z,38.27
2017-09-19T10:28:22.435Z,39.51
2017-09-19T10:29:33.027Z,40.07
2017-09-19T10:30:43.568Z,40.83
2017-09-19T10:31:54.264Z,41.19
2017-09-19T10:33:04.724Z,42.04
2017-09-19T10:34:15.350Z,42.89
2017-09-19T10:35:25.825Z,42.97
2017-09-19T10:36:36.360Z,43.26
2017-09-19T10:37:48.120Z,43.62
2017-09-19T10:38:58.621Z,43.72
2017-09-19T10:40:09.088Z,43.6
2017-09-19T10:41:19.585Z,43.43
2017-09-19T10:42:30.138Z,43.52
2017-09-19T10:43:40.877Z,43.24
2017-09-19T10:44:51.114Z,43.6
2017-09-19T10:46:01.644Z,43.89
2017-09-19T10:47:12.113Z,43.79
2017-09-19T10:48:22.575Z,42.94
2017-09-19T10:49:33.307Z,42.29
2017-09-19T10:50:43.431Z,41.54
2017-09-19T10:51:53.929Z,40.78
2017-09-19T10:53:04.374Z,40.23
2017-09-19T10:54:14.889Z,39.47
2017-09-19T10:55:25.590Z,39.69
2017-09-19T10:56:36.049Z,39.29
2017-09-19T10:57:46.557Z,38.35
2017-09-19T10:58:57.043Z,37.67
2017-09-19T11:00:07.536Z,37.4
2017-09-19T11:01:18.443Z,36.62
2017-09-19T11:02:29.166Z,36.82
2017-09-19T11:03:39.649Z,36.83
2017-09-19T11:04:50.185Z,36.74
2017-09-19T11:06:00.703Z,37.13
2017-09-19T11:07:11.477Z,37.11
2017-09-19T11:08:22.082Z,36.82
2017-09-19T11:09:32.620Z,36.52
2017-09-19T11:10:43.157Z,36.7
2017-09-19T11:11:53.311Z,36.7
2017-09-19T11:13:04.117Z,37.09
2017-09-19T11:14:14.599Z,36.8
2017-09-19T11:15:25.128Z,37.07
2017-09-19T11:16:35.606Z,37.75
2017-09-19T11:17:46.205Z,37.54
2017-09-19T11:18:56.916Z,37.92
2017-09-19T11:20:07.635Z,37.92
2017-09-19T11:21:18.180Z,39.64
2017-09-19T11:22:28.647Z,40.01
2017-09-19T11:23:38.795Z,40.67
2017-09-19T11:24:50.654Z,40.67
2017-09-19T11:26:01.133Z,41.71
2017-09-19T11:27:11.430Z,42.48
2017-09-19T11:28:21.612Z,43.14
2017-09-19T11:29:31.754Z,43.79
2017-09-19T11:30:42.500Z,44.56
2017-09-19T11:31:52.657Z,45.41
2017-09-19T11:33:02.958Z,45.89
2017-09-19T11:34:13.452Z,46.76
2017-09-19T11:35:23.536Z,47.8
2017-09-19T11:36:34.311Z,47.8
2017-09-19T11:37:44.785Z,48.57
2017-09-19T11:38:55.260Z,49.02
2017-09-19T11:40:05.759Z,49.51
2017-09-19T11:41:16.401Z,49.99
2017-09-19T11:42:27.150Z,49.87
2017-09-19T11:43:37.325Z,50.35
2017-09-19T11:44:47.783Z,50.45
2017-09-19T11:45:58.331Z,51.41
2017-09-19T11:47:08.497Z,50.54
2017-09-19T11:48:19.273Z,50.06
2017-09-19T11:49:29.835Z,50.45
2017-09-19T11:50:40.351Z,50.54
2017-09-19T11:51:50.813Z,50.13
2017-09-19T11:53:01.298Z,50.23
2017-09-19T11:54:12.088Z,50.23
2017-09-19T11:55:22.559Z,50.15
2017-09-19T11:56:33.169Z,50.25
2017-09-19T11:57:43.638Z,50.51
2017-09-19T11:58:53.871Z,50.13
2017-09-19T12:00:04.591Z,50.13
2017-09-19T12:01:15.149Z,50.32
2017-09-19T12:02:25.645Z,51.09
2017-09-19T12:03:36.132Z,50.9
2017-09-19T12:04:46.293Z,51.09
2017-09-19T12:05:57.018Z,50.81
2017-09-19T12:07:07.516Z,50.99
2017-09-19T12:08:18.027Z,51.76
2017-09-19T12:09:28.609Z,51.57
2017-09-19T12:10:39.374Z,52.25
2017-09-19T12:11:49.798Z,52.54
2017-09-19T12:13:00.289Z,52.06
2017-09-19T12:14:10.745Z,52.54
2017-09-19T12:15:21.295Z,52.63
2017-09-19T12:16:31.793Z,52.99
2017-09-19T12:17:42.519Z,53.19
2017-09-19T12:18:52.976Z,53.38
2017-09-19T12:20:03.141Z,52.89
2017-09-19T12:21:13.666Z,52.61
2017-09-19T12:22:23.820Z,52.7
2017-09-19T12:23:34.605Z,52.61
2017-09-19T12:24:45.043Z,52.42
2017-09-19T12:25:55.486Z,52.73
2017-09-19T12:27:06.023Z,52.34
2017-09-19T12:28:16.489Z,51.57
2017-09-19T12:29:26.872Z,51.86
2017-09-19T12:30:37.228Z,51.67
2017-09-19T12:31:47.370Z,51.19
2017-09-19T12:32:57.832Z,51.67
2017-09-19T12:34:08.311Z,51.5
2017-09-19T12:35:19.009Z,51.12
2017-09-19T12:36:29.128Z,50.45
2017-09-19T12:37:39.783Z,50.15
2017-09-19T12:38:50.248Z,49.77
2017-09-19T12:40:00.720Z,49.22
2017-09-19T12:41:11.448Z,48.83
2017-09-19T12:42:21.898Z,48.25
2017-09-19T12:43:32.057Z,47.87
2017-09-19T12:44:42.507Z,47.58
2017-09-19T12:45:52.965Z,47.22
2017-09-19T12:47:03.437Z,46.64
2017-09-19T12:48:13.882Z,45.97
2017-09-19T12:49:24.339Z,46.15
2017-09-19T12:50:34.505Z,46.55
2017-09-19T12:51:44.958Z,46.55
2017-09-19T12:52:55.684Z,46.93
2017-09-19T12:54:06.195Z,47.31
2017-09-19T12:55:16.654Z,47.12
2017-09-19T12:56:27.248Z,47.89
2017-09-19T12:57:37.683Z,48.64
2017-09-19T12:58:47.994Z,48.44
2017-09-19T12:59:58.448Z,49.32
2017-09-19T13:01:09.028Z,48.9
2017-09-19T13:02:19.467Z,49.29
2017-09-19T13:03:30.035Z,50.32
2017-09-19T13:04:40.752Z,50.42
2017-09-19T13:05:51.258Z,51.19
2017-09-19T13:07:01.722Z,51.84
2017-09-19T13:08:12.193Z,51.93
2017-09-19T13:09:22.670Z,52.22
2017-09-19T13:10:33.360Z,52.61
2017-09-19T13:11:43.811Z,52.32
2017-09-19T13:12:53.960Z,51.93
2017-09-19T13:14:04.465Z,51.84
2017-09-19T13:15:14.925Z,52.03
2017-09-19T13:16:25.632Z,52.32
2017-09-19T13:17:36.104Z,52.51
2017-09-19T13:18:46.613Z,51.96
2017-09-19T13:19:57.065Z,51.57
2017-09-19T13:21:07.535Z,51.67
2017-09-19T13:22:18.122Z,51.19
2017-09-19T13:23:28.173Z,51.12
2017-09-19T13:24:38.451Z,51.02
2017-09-19T13:25:49.969Z,50.15
2017-09-19T13:27:00.472Z,49.79
2017-09-19T13:28:11.201Z,49.7
2017-09-19T13:29:21.393Z,49.22
2017-09-19T13:30:31.965Z,48.74
2017-09-19T13:31:42.565Z,48.83
2017-09-19T13:32:53.097Z,48.44
2017-09-19T13:34:03.797Z,48.44
2017-09-19T13:35:14.006Z,48.44
2017-09-19T13:36:24.013Z,47.97
2017-09-19T13:37:34.739Z,47.19
2017-09-19T13:38:45.217Z,47.1
2017-09-19T13:39:55.984Z,47.1
2017-09-19T13:41:06.478Z,47.75
2017-09-19T13:42:16.710Z,48.23
2017-09-19T13:43:27.192Z,48.61
2017-09-19T13:44:37.710Z,48.79
2017-09-19T13:45:48.546Z,49.17
2017-09-19T13:46:59.035Z,49.27
2017-09-19T13:48:09.173Z,49.07
2017-09-19T13:49:19.621Z,50.23
2017-09-19T13:50:29.863Z,50.32
2017-09-19T13:51:40.690Z,50.68
2017-09-19T13:52:51.184Z,51.55
2017-09-19T13:54:01.735Z,51.64
2017-09-19T13:55:12.020Z,51.35
2017-09-19T13:56:22.682Z,52.51
2017-09-19T13:57:32.754Z,52.8
2017-09-19T13:58:43.221Z,52.8
2017-09-19T13:59:53.745Z,52.97
2017-09-19T14:01:04.244Z,53.74
2017-09-19T14:02:14.088Z,54.22
2017-09-19T14:03:24.908Z,54.31
2017-09-19T14:04:35.389Z,54.31
2017-09-19T14:05:45.968Z,54.31
2017-09-19T14:06:56.421Z,54.41
2017-09-19T14:08:06.866Z,54.89
2017-09-19T14:09:17.606Z,54.5
2017-09-19T14:10:28.056Z,54.96
2017-09-19T14:11:38.538Z,54.28
2017-09-19T14:12:49.198Z,54.86
2017-09-19T14:13:59.872Z,54.57
2017-09-19T14:15:10.600Z,54.77
2017-09-19T14:16:21.097Z,54.57
2017-09-19T14:17:31.537Z,54.86
2017-09-19T14:18:41.977Z,54.96
2017-09-19T14:19:54.383Z,55.12
2017-09-19T14:21:05.097Z,55.51
2017-09-19T14:22:15.565Z,55.41
2017-09-19T14:23:26.065Z,56.27
2017-09-19T14:24:36.521Z,56.37
2017-09-19T14:25:47.182Z,56.95
2017-09-19T14:26:57.622Z,56.66
2017-09-19T14:28:08.107Z,56.66
2017-09-19T14:29:18.686Z,56.85
2017-09-19T14:30:29.167Z,56.56
2017-09-19T14:31:39.614Z,56.95
2017-09-19T14:32:50.363Z,56.76
2017-09-19T14:34:01.044Z,56.37
2017-09-19T14:35:11.496Z,56.46
2017-09-19T14:36:22.000Z,56.56
2017-09-19T14:37:32.475Z,56.46
2017-09-19T14:38:43.226Z,56.95
2017-09-19T14:39:53.681Z,56.85
2017-09-19T14:41:03.967Z,56.56
2017-09-19T14:42:14.247Z,56.66
2017-09-19T14:43:24.863Z,56.56
2017-09-19T14:44:35.809Z,56.95
2017-09-19T14:45:46.428Z,57.33
2017-09-19T14:46:56.887Z,56.85
2017-09-19T14:48:07.360Z,57.23
2017-09-19T14:49:17.865Z,56.95
2017-09-19T14:50:28.636Z,56.76
2017-09-19T14:51:39.224Z,56.85
2017-09-19T14:52:49.692Z,56.56
2017-09-19T14:54:00.255Z,56.46
2017-09-19T14:55:10.359Z,56.66
2017-09-19T14:56:21.088Z,56.56
2017-09-19T14:57:31.577Z,56.76
2017-09-19T14:58:42.079Z,56.95
2017-09-19T14:59:52.527Z,57.23
2017-09-19T15:01:03.270Z,57.14
2017-09-19T15:02:14.229Z,57.14
2017-09-19T15:03:24.769Z,57.14
2017-09-19T15:04:35.221Z,56.76
2017-09-19T15:05:45.727Z,57.04
2017-09-19T15:06:56.187Z,57.14
2017-09-19T15:08:06.911Z,57.3
2017-09-19T15:09:17.376Z,57.5
2017-09-19T15:10:27.741Z,57.14